createdAt,value
2022-07-26T00:04:12.659Z,47.85
2022-07-26T00:09:16.899Z,47.62
2022-07-26T00:14:19.946Z,47.51
2022-07-26T00:19:22.820Z,47.95
2022-07-26T00:24:29.925Z,48.43
2022-07-26T00:29:35.313Z,48.42
2022-07-26T00:34:38.191Z,47.94
2022-07-26T00:39:43.882Z,47.70
2022-07-26T00:44:47.806Z,47.25
2022-07-26T00:49:51.067Z,47.43
2022-07-26T00:54:56.238Z,47.01
2022-07-26T01:00:01.168Z,47.65
2022-07-26T01:05:04.120Z,47.85
2022-07-26T01:10:12.565Z,48.59
2022-07-26T01:15:16.728Z,48.69
2022-07-26T01:20:19.581Z,49.40
2022-07-26T01:25:32.408Z,50.86
2022-07-26T01:30:35.291Z,51.07
2022-07-26T01:35:38.117Z,51.12
2022-07-26T01:40:42.681Z,51.00
2022-07-26T01:45:45.747Z,50.83
2022-07-26T01:50:48.678Z,50.43
2022-07-26T01:55:52.901Z,50.49
2022-07-26T02:00:55.549Z,50.19
2022-07-26T02:05:58.383Z,50.33
2022-07-26T02:11:03.650Z,50.32
2022-07-26T02:16:10.245Z,50.47
2022-07-26T02:21:13.111Z,50.38
2022-07-26T02:26:17.302Z,50.90
2022-07-26T02:31:19.992Z,50.17
2022-07-26T02:36:23.606Z,50.27
2022-07-26T02:41:27.881Z,50.09
2022-07-26T02:46:30.566Z,50.13
2022-07-26T02:51:33.457Z,50.85
2022-07-26T02:56:37.750Z,51.65
2022-07-26T03:01:40.831Z,51.50
2022-07-26T03:06:43.827Z,51.85
2022-07-26T03:11:48.037Z,50.97
2022-07-26T03:16:50.865Z,51.27
2022-07-26T03:21:53.653Z,51.11
2022-07-26T03:26:57.866Z,51.01
2022-07-26T03:32:00.725Z,50.22
2022-07-26T03:37:03.768Z,49.90
2022-07-26T03:42:08.236Z,49.98
2022-07-26T03:47:11.230Z,49.51
2022-07-26T03:52:14.404Z,49.17
2022-07-26T03:57:18.610Z,48.80
2022-07-26T04:02:21.820Z,48.64
2022-07-26T04:07:24.690Z,48.78
2022-07-26T04:12:31.300Z,49.00
2022-07-26T04:17:38.087Z,49.14
2022-07-26T04:22:41.688Z,49.13
2022-07-26T04:27:46.063Z,49.10
2022-07-26T04:32:48.919Z,48.86
2022-07-26T04:37:51.752Z,48.25
2022-07-26T04:42:56.134Z,48.59
2022-07-26T04:47:59.319Z,48.37
2022-07-26T04:53:03.032Z,48.52
2022-07-26T04:58:07.333Z,48.55
2022-07-26T05:03:09.999Z,48.49
2022-07-26T05:08:15.998Z,48.81
2022-07-26T05:13:23.163Z,49.17
2022-07-26T05:18:45.830Z,49.27
2022-07-26T05:23:52.239Z,50.39
2022-07-26T05:28:56.450Z,50.38
2022-07-26T05:33:59.336Z,50.25
2022-07-26T05:39:02.159Z,50.24
2022-07-26T05:44:06.918Z,50.51
2022-07-26T05:49:09.970Z,50.72
2022-07-26T05:54:12.820Z,50.12
2022-07-26T05:59:17.110Z,49.93
2022-07-26T06:04:19.797Z,49.99
2022-07-26T06:09:24.214Z,50.57
2022-07-26T06:14:28.567Z,51.06
2022-07-26T06:19:31.228Z,50.28
2022-07-26T06:24:34.058Z,51.16
2022-07-26T06:29:38.345Z,51.36
2022-07-26T06:34:40.949Z,50.71
2022-07-26T06:39:43.788Z,50.56
2022-07-26T06:44:47.979Z,50.75
2022-07-26T06:49:50.785Z,50.37
2022-07-26T06:54:53.703Z,50.03
2022-07-26T06:59:57.901Z,49.55
2022-07-26T07:05:00.618Z,49.08
2022-07-26T07:10:04.971Z,49.65
2022-07-26T07:15:11.658Z,49.07
2022-07-26T07:20:14.499Z,48.44
2022-07-26T07:25:17.331Z,48.73
2022-07-26T07:30:27.970Z,48.21
2022-07-26T07:35:31.610Z,48.09
2022-07-26T07:40:35.012Z,47.71
2022-07-26T07:45:39.254Z,48.00
2022-07-26T07:50:42.108Z,47.15
2022-07-26T07:55:46.777Z,47.40
2022-07-26T08:00:51.341Z,48.05
2022-07-26T08:05:54.292Z,47.99
2022-07-26T08:10:57.132Z,48.35
2022-07-26T08:16:01.397Z,49.30
2022-07-26T08:21:04.540Z,49.39
2022-07-26T08:26:07.677Z,48.78
2022-07-26T08:31:12.882Z,48.36
2022-07-26T08:36:16.397Z,47.32
2022-07-26T08:41:19.455Z,46.36
2022-07-26T08:46:27.751Z,45.58
2022-07-26T08:51:32.447Z,45.32
2022-07-26T08:56:36.625Z,44.39
2022-07-26T09:01:53.472Z,44.07
2022-07-26T09:06:59.209Z,43.70
2022-07-26T09:12:15.661Z,43.32
2022-07-26T09:17:21.681Z,43.43
2022-07-26T09:22:24.503Z,43.25
2022-07-26T09:27:36.664Z,43.54
2022-07-26T09:32:40.877Z,42.79
2022-07-26T09:37:46.639Z,42.53
2022-07-26T09:42:57.417Z,42.66
2022-07-26T09:48:01.988Z,41.92
2022-07-26T09:53:08.697Z,41.29
2022-07-26T09:58:13.991Z,41.26
2022-07-26T10:03:18.423Z,41.48
2022-07-26T10:08:21.576Z,41.29
2022-07-26T10:13:24.599Z,41.25
2022-07-26T10:18:45.353Z,40.98
2022-07-26T10:23:49.305Z,41.34
2022-07-26T10:28:52.345Z,40.87
2022-07-26T10:33:57.351Z,40.56
2022-07-26T10:39:12.281Z,39.56
2022-07-26T10:44:27.310Z,39.02
2022-07-26T10:49:33.884Z,39.35
2022-07-26T10:55:06.138Z,39.80
2022-07-26T11:00:12.158Z,39.46
2022-07-26T11:05:18.003Z,40.11
2022-07-26T11:10:29.045Z,39.59
2022-07-26T11:15:33.709Z,39.43
2022-07-26T11:20:37.794Z,39.09
2022-07-26T11:25:40.672Z,39.15
2022-07-26T11:30:57.588Z,38.56
2022-07-26T11:36:01.859Z,37.78
2022-07-26T11:41:04.737Z,36.85
2022-07-26T11:46:08.249Z,36.64
2022-07-26T11:51:14.419Z,35.92
2022-07-26T11:56:19.177Z,35.43
2022-07-26T12:01:23.258Z,35.16
2022-07-26T12:06:29.040Z,34.67
2022-07-26T12:11:40.179Z,34.63
2022-07-26T12:16:45.338Z,34.44
2022-07-26T12:21:51.455Z,34.67
2022-07-26T12:27:06.370Z,35.04
2022-07-26T12:32:12.864Z,36.77
2022-07-26T12:37:18.895Z,37.35
2022-07-26T12:42:33.134Z,36.99
2022-07-26T12:47:38.438Z,36.63
2022-07-26T12:52:43.458Z,35.71
2022-07-26T12:57:47.515Z,35.28
2022-07-26T13:02:51.247Z,34.55
2022-07-26T13:07:55.592Z,34.09
2022-07-26T13:12:58.554Z,34.05
2022-07-26T13:18:01.352Z,34.39
2022-07-26T13:23:05.580Z,34.26
2022-07-26T13:28:09.761Z,34.65
2022-07-26T13:33:12.755Z,34.08
2022-07-26T13:38:19.186Z,34.58
2022-07-26T13:43:22.088Z,33.72
2022-07-26T13:48:24.954Z,33.53
2022-07-26T13:53:30.379Z,34.77
2022-07-26T13:58:33.381Z,35.02
2022-07-26T14:03:36.359Z,34.54
2022-07-26T14:08:40.632Z,34.42
2022-07-26T14:13:43.501Z,34.83
2022-07-26T14:18:46.386Z,33.75
2022-07-26T14:23:51.844Z,32.80
2022-07-26T14:28:54.721Z,31.97
2022-07-26T14:33:57.556Z,32.16
2022-07-26T14:39:01.759Z,32.68
2022-07-26T14:44:05.175Z,32.72
2022-07-26T14:49:08.048Z,33.37
2022-07-26T14:54:14.342Z,30.97
2022-07-26T14:59:18.081Z,28.65
2022-07-26T15:04:20.966Z,29.51
2022-07-26T15:09:25.190Z,30.01
2022-07-26T15:14:28.015Z,29.35
2022-07-26T15:19:30.709Z,28.00
2022-07-26T15:24:39.605Z,26.25
2022-07-26T15:29:43.200Z,26.93
2022-07-26T15:34:46.088Z,29.29
2022-07-26T15:39:51.950Z,29.42
2022-07-26T15:44:54.915Z,26.77
2022-07-26T15:49:57.796Z,27.07
2022-07-26T15:55:02.013Z,27.82
2022-07-26T16:00:11.689Z,29.25
2022-07-26T16:05:14.987Z,30.57
2022-07-26T16:10:19.461Z,30.97
2022-07-26T16:15:22.280Z,30.89
2022-07-26T16:20:25.118Z,30.50
2022-07-26T16:25:29.973Z,28.29
2022-07-26T16:30:32.961Z,25.94
2022-07-26T16:35:35.948Z,24.22
2022-07-26T16:40:40.336Z,23.63
2022-07-26T16:45:43.223Z,23.42
2022-07-26T16:50:46.204Z,23.93
2022-07-26T16:55:51.962Z,24.29
2022-07-26T17:00:55.071Z,23.51
2022-07-26T17:06:00.732Z,21.86
2022-07-26T17:11:07.247Z,23.22
2022-07-26T17:16:10.190Z,24.83
2022-07-26T17:21:13.294Z,24.61
2022-07-26T17:26:18.017Z,24.16
2022-07-26T17:31:21.148Z,23.92
2022-07-26T17:36:25.745Z,24.38
2022-07-26T17:41:33.075Z,23.94
2022-07-26T17:46:36.651Z,24.54
2022-07-26T17:51:40.216Z,24.52
2022-07-26T17:56:44.691Z,24.75
2022-07-26T18:01:53.794Z,25.62
2022-07-26T18:06:57.024Z,26.77
2022-07-26T18:12:01.328Z,28.28
2022-07-26T18:17:04.241Z,29.63
2022-07-26T18:22:07.230Z,30.85
2022-07-26T18:27:11.488Z,31.77
2022-07-26T18:32:15.261Z,32.81
2022-07-26T18:37:18.656Z,33.72
2022-07-26T18:42:22.873Z,34.05
2022-07-26T18:47:25.877Z,34.55
2022-07-26T18:52:32.420Z,35.01
2022-07-26T18:57:37.932Z,34.78
2022-07-26T19:02:40.834Z,35.47
2022-07-26T19:07:43.891Z,35.82
2022-07-26T19:12:48.570Z,36.12
2022-07-26T19:17:51.777Z,36.04
2022-07-26T19:22:54.662Z,36.57
2022-07-26T19:27:58.916Z,36.43
2022-07-26T19:33:02.311Z,36.48
2022-07-26T19:38:05.205Z,36.94
2022-07-26T19:43:09.494Z,37.51
2022-07-26T19:48:12.381Z,37.90
2022-07-26T19:53:15.322Z,38.21
2022-07-26T19:58:19.653Z,38.12
2022-07-26T20:03:22.538Z,38.34
2022-07-26T20:08:26.114Z,38.53
2022-07-26T20:13:30.373Z,38.60
2022-07-26T20:18:33.104Z,38.06
2022-07-26T20:23:35.989Z,38.68
2022-07-26T20:28:40.257Z,38.83
2022-07-26T20:33:42.870Z,38.45
2022-07-26T20:38:51.071Z,38.98
2022-07-26T20:43:56.876Z,39.43
2022-07-26T20:48:59.922Z,39.52
2022-07-26T20:54:03.292Z,39.47
2022-07-26T20:59:07.608Z,39.79
2022-07-26T21:04:10.299Z,39.40
2022-07-26T21:09:14.566Z,39.60
2022-07-26T21:14:19.689Z,40.00
2022-07-26T21:19:22.653Z,40.53
2022-07-26T21:24:25.961Z,40.44
2022-07-26T21:29:30.290Z,40.69
2022-07-26T21:34:34.326Z,40.00
2022-07-26T21:39:37.550Z,40.40
2022-07-26T21:44:41.867Z,40.73
2022-07-26T21:49:44.700Z,41.10
2022-07-26T21:54:47.576Z,41.06
2022-07-26T21:59:51.790Z,41.24
2022-07-26T22:04:54.644Z,41.44
2022-07-26T22:09:57.484Z,41.63
2022-07-26T22:15:01.913Z,41.25
2022-07-26T22:20:05.475Z,40.57
2022-07-26T22:25:08.933Z,40.38
2022-07-26T22:30:13.814Z,42.27
2022-07-26T22:35:16.633Z,43.04
2022-07-26T22:40:19.857Z,43.16
2022-07-26T22:45:24.292Z,43.88
2022-07-26T22:50:27.928Z,43.31
2022-07-26T22:55:31.162Z,44.41
2022-07-26T23:00:35.467Z,44.27
2022-07-26T23:05:46.362Z,44.65
2022-07-26T23:10:50.333Z,45.65
2022-07-26T23:16:00.512Z,46.90
2022-07-26T23:21:04.607Z,46.21
2022-07-26T23:26:07.446Z,46.07
2022-07-26T23:31:12.884Z,47.27
2022-07-26T23:36:15.930Z,47.00
2022-07-26T23:41:19.027Z,46.62
2022-07-26T23:46:23.927Z,47.72
2022-07-26T23:51:26.981Z,46.67
2022-07-26T23:56:29.817Z,47.14
